Time;durP1;ratioP1;P1;durP2;ratioP2;P2;SDS_P1;SDS_P2;PMS_P1;PMS_P2;Temp;Humidity;BMP_temperature;BMP_pressure;BME280_temperature;BME280_humidity;BME280_pressure;Samples;Min_cycle;Max_cycle;Signal;HPM_P1;HPM_P2
2022/05/02 00:00:54;;;;;;;13.07;10.77;;;9.20;99.90;;;;;;4995225;28;20199;-29
2022/05/02 00:03:20;;;;;;;12.83;10.63;;;9.20;99.90;;;;;;4995091;28;20658;-30
2022/05/02 00:05:46;;;;;;;12.57;10.20;;;9.10;99.90;;;;;;4994957;28;20190;-29
2022/05/02 00:08:12;;;;;;;14.70;10.90;;;9.10;99.90;;;;;;4994836;28;20274;-30
2022/05/02 00:10:38;;;;;;;11.80;10.13;;;9.00;99.90;;;;;;4978164;28;20781;-29
2022/05/02 00:13:06;;;;;;;12.00;10.73;;;9.00;99.90;;;;;;4978711;28;20313;-29
2022/05/02 00:15:33;;;;;;;11.27;10.07;;;8.90;99.90;;;;;;4994893;28;20755;-30
2022/05/02 00:18:02;;;;;;;12.37;10.33;;;8.90;99.90;;;;;;4994885;28;20196;-29
2022/05/02 00:20:36;;;;;;;15.43;11.30;;;8.80;99.90;;;;;;5012184;28;20203;-30
2022/05/02 00:23:05;;;;;;;13.70;11.03;;;8.80;99.90;;;;;;4978230;28;20186;-28
2022/05/02 00:25:31;;;;;;;13.30;10.80;;;8.70;99.90;;;;;;4994768;28;20206;-29
2022/05/02 00:27:58;;;;;;;14.83;11.03;;;8.70;99.90;;;;;;4978187;28;20640;-31
2022/05/02 00:30:24;;;;;;;12.60;10.97;;;8.70;99.90;;;;;;4994037;28;20211;-29
2022/05/02 00:32:50;;;;;;;13.77;12.20;;;8.60;99.90;;;;;;5012044;28;20190;-29
2022/05/02 00:35:16;;;;;;;14.17;11.73;;;8.60;99.90;;;;;;4978083;28;20182;-28
2022/05/02 00:37:43;;;;;;;16.20;11.93;;;8.60;99.90;;;;;;4977787;28;20206;-28
2022/05/02 00:40:14;;;;;;;13.70;11.60;;;8.60;99.90;;;;;;4978166;28;20182;-31
2022/05/02 00:42:43;;;;;;;14.47;11.47;;;8.50;99.90;;;;;;4994373;28;20321;-29
2022/05/02 00:45:10;;;;;;;12.13;10.50;;;8.40;99.90;;;;;;4978041;28;20228;-29
2022/05/02 00:47:37;;;;;;;12.90;11.50;;;8.40;99.90;;;;;;4977956;28;20194;-29
2022/05/02 00:50:07;;;;;;;12.83;10.77;;;8.40;99.90;;;;;;4977406;28;20214;-28
2022/05/02 00:52:33;;;;;;;15.00;11.30;;;8.40;99.90;;;;;;4994327;28;20175;-28
2022/05/02 00:55:00;;;;;;;11.93;10.23;;;8.40;99.90;;;;;;4994157;28;20186;-29
2022/05/02 00:57:26;;;;;;;12.90;11.20;;;8.50;99.90;;;;;;4977724;28;20196;-29
2022/05/02 00:59:52;;;;;;;16.17;12.60;;;8.50;99.90;;;;;;4977732;28;20225;-28
2022/05/02 01:02:18;;;;;;;13.60;11.60;;;8.50;99.90;;;;;;4993337;28;20206;-29
2022/05/02 01:04:44;;;;;;;13.87;11.23;;;8.50;99.90;;;;;;4993361;28;20190;-29
2022/05/02 01:07:19;;;;;;;15.27;11.70;;;8.40;99.90;;;;;;4978094;28;20222;-30
2022/05/02 01:09:50;;;;;;;13.37;11.43;;;8.30;99.90;;;;;;4993735;28;20249;-29
2022/05/02 01:12:24;;;;;;;16.60;12.67;;;8.20;99.90;;;;;;5011624;28;20197;-29
2022/05/02 01:14:52;;;;;;;14.67;11.33;;;8.20;99.90;;;;;;4977529;28;20175;-29
2022/05/02 01:17:18;;;;;;;14.13;12.07;;;8.10;99.90;;;;;;4977248;28;20201;-29
2022/05/02 01:19:45;;;;;;;13.87;11.53;;;7.90;99.90;;;;;;4993318;28;20269;-29
2022/05/02 01:22:11;;;;;;;15.80;12.10;;;7.80;99.90;;;;;;4993775;28;20210;-30
2022/05/02 01:24:38;;;;;;;16.57;11.90;;;7.90;99.90;;;;;;4993855;28;20179;-29
2022/05/02 01:27:05;;;;;;;14.80;11.73;;;7.90;99.90;;;;;;4993845;28;20261;-30
2022/05/02 01:29:33;;;;;;;12.83;10.93;;;7.90;99.90;;;;;;4992967;28;20207;-30
2022/05/02 01:32:00;;;;;;;13.07;11.13;;;7.90;99.90;;;;;;4977666;28;20189;-29
2022/05/02 01:34:26;;;;;;;16.00;12.00;;;7.90;99.90;;;;;;4977726;28;20179;-30
2022/05/02 01:36:52;;;;;;;14.57;11.63;;;7.80;99.90;;;;;;4993414;28;20197;-30
2022/05/02 01:39:18;;;;;;;14.80;12.47;;;7.80;99.90;;;;;;4993388;28;20289;-29
2022/05/02 01:41:44;;;;;;;14.73;12.27;;;7.80;99.90;;;;;;4977592;28;20633;-30
2022/05/02 01:44:10;;;;;;;15.97;12.40;;;7.80;99.90;;;;;;4977074;28;20196;-30
2022/05/02 01:46:37;;;;;;;15.47;12.33;;;7.80;99.90;;;;;;4993882;28;20195;-30
2022/05/02 01:49:03;;;;;;;15.00;12.23;;;7.80;99.90;;;;;;4977946;28;20203;-29
2022/05/02 01:51:29;;;;;;;13.43;11.73;;;7.70;99.90;;;;;;4978946;28;20264;-29
2022/05/02 01:53:55;;;;;;;13.27;11.47;;;7.70;99.90;;;;;;4978101;28;20205;-30
2022/05/02 01:56:20;;;;;;;14.77;11.67;;;7.70;99.90;;;;;;4978345;28;20232;-29
2022/05/02 01:58:46;;;;;;;14.00;11.23;;;7.70;99.90;;;;;;4979271;28;20253;-28
2022/05/02 02:01:12;;;;;;;15.20;11.30;;;7.70;99.90;;;;;;4978209;28;20190;-29
2022/05/02 02:03:38;;;;;;;13.00;11.30;;;7.70;99.90;;;;;;4993735;28;20186;-29
2022/05/02 02:06:04;;;;;;;14.47;10.67;;;7.60;99.90;;;;;;4977357;28;20186;-30
2022/05/02 02:08:32;;;;;;;13.13;10.00;;;7.60;99.90;;;;;;4977144;28;20207;-30
2022/05/02 02:11:04;;;;;;;13.10;10.40;;;7.50;99.90;;;;;;4993534;28;20216;-32
2022/05/02 02:13:31;;;;;;;14.43;10.73;;;7.50;99.90;;;;;;5010759;28;20182;-30
2022/05/02 02:15:59;;;;;;;13.83;11.00;;;7.50;99.90;;;;;;5013867;28;20179;-29
2022/05/02 02:18:25;;;;;;;13.43;10.47;;;7.50;99.90;;;;;;4980682;28;20201;-29
2022/05/02 02:20:53;;;;;;;11.07;9.93;;;7.60;99.90;;;;;;4980696;28;20185;-29
2022/05/02 02:23:20;;;;;;;15.37;11.40;;;7.60;99.90;;;;;;4980627;28;20181;-29
2022/05/02 02:25:46;;;;;;;13.93;10.60;;;7.60;99.90;;;;;;4980278;28;20186;-30
2022/05/02 02:28:15;;;;;;;14.13;10.00;;;7.60;99.90;;;;;;4997067;28;20241;-30
2022/05/02 02:30:42;;;;;;;13.00;10.90;;;7.60;99.90;;;;;;4980394;28;20268;-30
2022/05/02 02:33:07;;;;;;;11.10;9.90;;;7.50;99.90;;;;;;4980409;28;20208;-30
2022/05/02 02:35:33;;;;;;;12.07;10.17;;;7.60;99.90;;;;;;4980409;28;20186;-31
2022/05/02 02:37:59;;;;;;;11.70;10.40;;;7.50;99.90;;;;;;4996701;28;20677;-30
2022/05/02 02:40:25;;;;;;;14.13;9.80;;;7.40;99.90;;;;;;4979778;28;20181;-31
2022/05/02 02:42:51;;;;;;;13.40;10.13;;;7.30;99.90;;;;;;4996818;28;20215;-29
2022/05/02 02:45:17;;;;;;;12.20;10.63;;;7.30;99.90;;;;;;4980485;28;20192;-29
2022/05/02 02:47:43;;;;;;;10.60;9.50;;;7.30;99.90;;;;;;4980181;28;20217;-30
2022/05/02 02:50:09;;;;;;;11.50;9.53;;;7.20;99.90;;;;;;4996185;28;20214;-30
2022/05/02 02:52:36;;;;;;;10.80;9.70;;;7.20;99.90;;;;;;4980138;28;20178;-30
2022/05/02 02:55:02;;;;;;;12.87;9.70;;;7.20;99.90;;;;;;4995958;28;20179;-29
2022/05/02 02:57:28;;;;;;;10.57;9.47;;;7.20;99.90;;;;;;4996474;28;20173;-29
2022/05/02 02:59:54;;;;;;;13.13;9.90;;;7.20;99.90;;;;;;4996139;28;20200;-30
2022/05/02 03:02:20;;;;;;;11.93;9.77;;;7.10;99.90;;;;;;5013933;28;20192;-29
2022/05/02 03:07:30;;;;;;;12.70;10.57;;;6.90;99.90;;;;;;4996069;28;20395;-30
2022/05/02 03:09:58;;;;;;;13.13;10.80;;;6.80;99.90;;;;;;4980044;28;20289;-29
2022/05/02 03:12:24;;;;;;;13.27;11.40;;;6.80;99.90;;;;;;4996143;28;20223;-30
2022/05/02 03:14:50;;;;;;;15.07;11.87;;;6.70;99.90;;;;;;4996032;28;20655;-30
2022/05/02 03:17:16;;;;;;;20.47;13.17;;;6.60;99.90;;;;;;4979856;28;20187;-29
2022/05/02 03:19:42;;;;;;;15.60;11.40;;;6.60;99.90;;;;;;4979490;28;20211;-29
2022/05/02 03:22:08;;;;;;;14.57;11.60;;;6.50;99.90;;;;;;4995751;28;20192;-30
2022/05/02 03:24:34;;;;;;;13.83;11.33;;;6.50;99.90;;;;;;4995710;28;20271;-30
2022/05/02 03:27:00;;;;;;;13.03;10.30;;;6.60;99.90;;;;;;4979405;28;20322;-29
2022/05/02 03:29:26;;;;;;;12.33;9.87;;;6.50;99.90;;;;;;4979089;28;20269;-30
2022/05/02 03:31:51;;;;;;;13.27;10.53;;;6.60;99.90;;;;;;4979280;28;20289;-30
2022/05/02 03:34:17;;;;;;;11.83;10.17;;;6.60;99.90;;;;;;4995780;28;20552;-30
2022/05/02 03:36:43;;;;;;;13.30;10.37;;;6.60;99.90;;;;;;4979234;28;20195;-29
2022/05/02 03:39:09;;;;;;;13.37;10.63;;;6.70;99.90;;;;;;4979245;28;20204;-29
2022/05/02 03:41:35;;;;;;;12.23;10.13;;;6.70;99.90;;;;;;4995748;28;20181;-30
2022/05/02 03:44:01;;;;;;;13.00;10.23;;;6.70;99.90;;;;;;4995582;28;20187;-29
2022/05/02 03:46:28;;;;;;;14.77;10.57;;;6.70;99.90;;;;;;4979558;28;20557;-29
2022/05/02 03:48:54;;;;;;;11.43;9.70;;;6.80;99.90;;;;;;4978865;28;20210;-32
2022/05/02 03:51:20;;;;;;;11.27;9.50;;;6.80;99.90;;;;;;4978842;28;20213;-30
2022/05/02 03:53:46;;;;;;;11.30;9.73;;;6.70;99.90;;;;;;4979127;28;20738;-29
2022/05/02 03:56:12;;;;;;;11.63;9.53;;;6.70;99.90;;;;;;4995500;28;20175;-31
2022/05/02 03:58:39;;;;;;;14.57;10.63;;;6.70;99.90;;;;;;5002810;23;20332;-37
2022/05/02 04:01:04;;;;;;;13.10;9.83;;;6.70;99.90;;;;;;4987368;28;20235;-38
2022/05/02 04:03:30;;;;;;;13.33;10.57;;;6.70;99.90;;;;;;4984851;28;20617;-37
2022/05/02 04:05:56;;;;;;;12.07;9.97;;;6.60;99.90;;;;;;4992286;28;20203;-37
2022/05/02 04:08:22;;;;;;;12.07;9.60;;;6.60;99.90;;;;;;4989771;28;20230;-37
2022/05/02 04:10:48;;;;;;;11.57;9.93;;;6.60;99.90;;;;;;4975029;28;20209;-37
2022/05/02 04:13:13;;;;;;;12.27;9.47;;;6.50;99.90;;;;;;4975807;28;20243;-38
2022/05/02 04:15:39;;;;;;;11.83;10.20;;;6.50;99.90;;;;;;4975301;28;20200;-39
2022/05/02 04:18:06;;;;;;;12.17;9.43;;;6.40;99.90;;;;;;4975366;28;20210;-37
2022/05/02 04:20:31;;;;;;;10.90;9.60;;;6.40;99.90;;;;;;4974868;28;20231;-37
2022/05/02 04:22:57;;;;;;;11.17;9.37;;;6.40;99.90;;;;;;4975417;28;20179;-37
2022/05/02 04:25:23;;;;;;;10.37;9.00;;;6.40;99.90;;;;;;4975040;28;20212;-37
2022/05/02 04:27:49;;;;;;;14.20;9.63;;;6.40;99.90;;;;;;4959167;28;20213;-37
2022/05/02 04:30:15;;;;;;;13.27;9.87;;;6.40;99.90;;;;;;4975095;28;20290;-37
2022/05/02 04:32:41;;;;;;;12.47;9.87;;;6.30;99.90;;;;;;4991266;28;20190;-38
2022/05/02 04:35:10;;;;;;;12.40;9.87;;;6.30;99.90;;;;;;4991083;28;20189;-37
2022/05/02 04:37:36;;;;;;;10.17;9.07;;;6.40;99.90;;;;;;4958703;28;20184;-37
2022/05/02 04:40:03;;;;;;;11.90;9.93;;;6.40;99.90;;;;;;4990807;28;20215;-37
2022/05/02 04:42:29;;;;;;;12.77;10.30;;;6.40;99.90;;;;;;4992334;28;20176;-37
2022/05/02 04:44:55;;;;;;;12.47;9.97;;;6.40;99.90;;;;;;4992244;28;20276;-37
2022/05/02 04:47:21;;;;;;;12.40;9.87;;;6.40;99.90;;;;;;5000391;28;20176;-40
2022/05/02 04:49:46;;;;;;;11.27;9.67;;;6.50;99.90;;;;;;4966414;28;20211;-38
2022/05/02 04:52:12;;;;;;;12.93;10.40;;;6.50;99.90;;;;;;4980055;28;20231;-38
2022/05/02 04:54:39;;;;;;;11.93;9.80;;;6.50;99.90;;;;;;4976704;28;20183;-41
2022/05/02 04:57:05;;;;;;;13.43;9.90;;;6.50;99.90;;;;;;4986327;28;20260;-38
2022/05/02 04:59:30;;;;;;;14.20;9.77;;;6.50;99.90;;;;;;4984409;28;20208;-37
2022/05/02 05:01:58;;;;;;;12.43;10.13;;;6.60;99.90;;;;;;4984948;28;20180;-37
2022/05/02 05:04:27;;;;;;;12.33;10.33;;;6.60;99.90;;;;;;4966619;28;20184;-39
2022/05/02 05:06:52;;;;;;;12.27;10.23;;;6.70;99.90;;;;;;4977198;28;20239;-38
2022/05/02 05:09:18;;;;;;;11.23;9.33;;;6.80;99.90;;;;;;4993509;28;20211;-39
2022/05/02 05:12:04;;;;;;;11.27;9.57;;;6.80;99.90;;;;;;4977562;28;20214;-38
2022/05/02 05:18:09;;;;;;;12.40;10.10;;;6.90;99.90;;;;;;4988060;28;20191;-40
2022/05/02 05:20:46;;;;;;;12.33;9.97;;;7.00;99.90;;;;;;4993188;28;20183;-37
2022/05/02 05:23:12;;;;;;;13.53;10.03;;;7.10;99.90;;;;;;4993812;28;20202;-39
2022/05/02 05:25:57;;;;;;;14.33;11.50;;;7.20;99.90;;;;;;4977858;28;20569;-38
2022/05/02 05:29:04;;;;;;;12.63;10.80;;;7.20;99.90;;;;;;4993749;28;20607;-37
2022/05/02 05:31:43;;;;;;;12.27;9.77;;;7.30;99.90;;;;;;4957976;28;20618;-37
2022/05/02 05:34:09;;;;;;;13.90;10.63;;;7.30;99.90;;;;;;4990544;28;20641;-38
2022/05/02 05:36:59;;;;;;;13.90;10.63;;;7.30;99.90;;;;;;4991258;28;20175;-39
2022/05/02 05:40:06;;;;;;;11.50;10.13;;;7.50;99.90;;;;;;4973812;28;20198;-35
2022/05/02 05:42:50;;;;;;;10.67;8.97;;;7.60;99.90;;;;;;4974248;28;20251;-35
2022/05/02 05:45:28;;;;;;;13.20;10.83;;;7.60;99.90;;;;;;4958130;28;20180;-35
2022/05/02 05:48:24;;;;;;;13.40;10.53;;;7.70;99.90;;;;;;4991483;28;20179;-35
2022/05/02 05:51:06;;;;;;;11.80;10.27;;;7.70;99.90;;;;;;4962075;28;20301;-36
2022/05/02 05:53:55;;;;;;;13.10;11.57;;;7.90;99.90;;;;;;4978032;28;20183;-36
2022/05/02 05:56:42;;;;;;;11.27;10.07;;;8.00;99.90;;;;;;4969875;28;20190;-37
2022/05/02 05:59:37;;;;;;;13.83;10.87;;;8.10;99.90;;;;;;4961597;28;20224;-38
2022/05/02 06:02:17;;;;;;;14.87;11.73;;;8.20;99.90;;;;;;4977893;28;20190;-36
2022/05/02 06:04:47;;;;;;;12.53;11.23;;;8.30;99.90;;;;;;4977604;28;20178;-36
2022/05/02 06:07:13;;;;;;;12.30;11.00;;;8.40;99.90;;;;;;4977718;28;20187;-37
2022/05/02 06:09:42;;;;;;;15.57;11.60;;;8.50;99.90;;;;;;4977281;28;20710;-38
2022/05/02 06:12:13;;;;;;;13.63;11.87;;;8.60;99.90;;;;;;4977548;28;20326;-37
2022/05/02 06:20:20;;;;;;;13.70;11.33;;;8.80;99.90;;;;;;4977391;28;20191;-36
2022/05/02 06:22:47;;;;;;;13.67;11.30;;;8.90;99.90;;;;;;4977816;28;20191;-39
2022/05/02 06:25:19;;;;;;;14.67;12.13;;;9.10;99.90;;;;;;4976923;28;20612;-36
2022/05/02 06:27:48;;;;;;;13.77;11.77;;;9.10;99.90;;;;;;4960368;28;20245;-37
2022/05/02 06:30:15;;;;;;;14.17;12.20;;;9.20;99.90;;;;;;4976772;28;20208;-39
2022/05/02 06:32:43;;;;;;;15.00;11.90;;;9.20;99.90;;;;;;4993548;28;20545;-38
2022/05/02 06:35:10;;;;;;;13.63;11.67;;;9.30;99.90;;;;;;4977107;28;20215;-40
2022/05/02 06:37:56;;;;;;;14.27;12.07;;;9.40;99.90;;;;;;4961235;28;20180;-36
2022/05/02 06:40:57;;;;;;;15.00;11.97;;;9.60;99.90;;;;;;4977071;28;20180;-37
2022/05/02 06:43:39;;;;;;;13.03;11.70;;;9.70;99.90;;;;;;4954793;28;20191;-37
2022/05/02 06:46:25;;;;;;;16.60;12.00;;;9.90;99.90;;;;;;4993292;28;20274;-36
2022/05/02 06:49:02;;;;;;;14.73;11.93;;;10.00;99.90;;;;;;4976731;28;20207;-38
2022/05/02 06:51:39;;;;;;;14.27;11.83;;;10.20;99.90;;;;;;4994324;28;20214;-39
2022/05/02 06:54:17;;;;;;;14.20;12.13;;;10.20;99.90;;;;;;4976804;28;20176;-38
2022/05/02 06:56:46;;;;;;;15.37;11.83;;;10.40;99.90;;;;;;4994273;28;20175;-36
2022/05/02 06:59:15;;;;;;;13.87;12.40;;;10.60;99.90;;;;;;4959993;28;20284;-36
2022/05/02 07:01:50;;;;;;;13.17;11.77;;;10.80;99.90;;;;;;4959940;28;20215;-36
2022/05/02 07:04:22;;;;;;;13.43;11.73;;;10.90;99.90;;;;;;4962176;28;20222;-35
2022/05/02 07:07:10;;;;;;;14.50;12.63;;;11.00;99.90;;;;;;4962355;28;20188;-38
2022/05/02 07:09:39;;;;;;;13.83;11.20;;;11.10;99.90;;;;;;4960280;28;20208;-36
2022/05/02 07:12:18;;;;;;;15.50;12.47;;;11.20;99.90;;;;;;4976001;28;20293;-35
2022/05/02 07:15:05;;;;;;;13.90;12.47;;;11.30;99.90;;;;;;4976199;28;20636;-40
2022/05/02 07:17:37;;;;;;;16.13;12.43;;;11.50;99.90;;;;;;4959612;28;20207;-38
2022/05/02 07:20:05;;;;;;;14.67;13.10;;;11.70;99.90;;;;;;4959580;28;20228;-36
2022/05/02 07:22:46;;;;;;;13.90;12.40;;;11.70;99.90;;;;;;4976278;28;20338;-39
2022/05/02 07:25:20;;;;;;;14.80;12.40;;;11.90;99.90;;;;;;4976262;28;20188;-35
2022/05/02 07:28:23;;;;;;;17.33;14.23;;;12.00;99.90;;;;;;4993782;28;20234;-36
2022/05/02 07:30:51;;;;;;;15.10;13.50;;;12.10;99.90;;;;;;4960012;28;20239;-36
2022/05/02 07:33:18;;;;;;;14.37;12.87;;;12.20;99.90;;;;;;4992392;28;20172;-36
2022/05/02 07:35:45;;;;;;;15.80;13.10;;;12.30;99.90;;;;;;4979678;28;20177;-36
2022/05/02 07:38:13;;;;;;;15.27;13.37;;;12.40;99.90;;;;;;4984734;28;20196;-41
2022/05/02 07:41:22;;;;;;;15.53;13.93;;;12.60;99.90;;;;;;4986457;28;20415;-35
2022/05/02 07:43:34;;;;;;;15.53;13.20;;;12.70;99.90;;;;;;4986095;28;20185;-39
2022/05/02 07:46:04;;;;;;;14.70;13.13;;;12.90;99.90;;;;;;4984500;28;20256;-40
2022/05/02 07:48:32;;;;;;;13.93;12.53;;;13.00;99.90;;;;;;4970615;28;20208;-39
2022/05/02 07:50:59;;;;;;;14.90;12.87;;;13.10;99.90;;;;;;4984704;28;20202;-36
2022/05/02 07:53:27;;;;;;;14.20;12.70;;;13.20;99.90;;;;;;5000321;28;20194;-37
2022/05/02 07:55:56;;;;;;;14.30;12.43;;;13.30;99.90;;;;;;4989270;28;20229;-37
2022/05/02 07:58:26;;;;;;;15.63;14.03;;;13.50;99.90;;;;;;4969387;28;20222;-36
2022/05/02 08:00:52;;;;;;;16.40;13.27;;;13.60;99.90;;;;;;4983288;28;20186;-37
2022/05/02 08:03:24;;;;;;;16.70;14.90;;;13.70;99.90;;;;;;4984671;28;20191;-37
2022/05/02 08:05:58;;;;;;;15.60;14.00;;;13.70;99.90;;;;;;4964906;28;20271;-37
2022/05/02 08:08:48;;;;;;;15.03;13.50;;;13.80;99.90;;;;;;4984322;28;20667;-38
2022/05/02 08:11:26;;;;;;;14.70;13.20;;;13.70;99.90;;;;;;4981998;28;20303;-36
2022/05/02 08:14:02;;;;;;;15.47;13.53;;;13.80;99.90;;;;;;4980214;28;20168;-37
2022/05/02 08:16:32;;;;;;;15.93;13.63;;;14.00;99.90;;;;;;4975875;28;20190;-36
2022/05/02 08:19:13;;;;;;;14.00;12.50;;;14.30;99.90;;;;;;4978459;28;20291;-36
2022/05/02 08:21:49;;;;;;;15.83;13.40;;;14.60;99.90;;;;;;4994721;28;20190;-38
2022/05/02 08:27:43;;;;;;;18.33;14.43;;;14.90;99.90;;;;;;4994649;28;20237;-35
2022/05/02 08:30:12;;;;;;;14.80;13.10;;;14.80;99.90;;;;;;4985367;28;20208;-39
2022/05/02 08:33:00;;;;;;;13.43;12.07;;;14.80;99.90;;;;;;4974790;28;20183;-35
2022/05/02 08:35:51;;;;;;;14.13;12.73;;;15.10;99.90;;;;;;4974977;28;20195;-36
2022/05/02 08:38:32;;;;;;;13.23;11.77;;;15.40;99.90;;;;;;4974850;28;20208;-38
2022/05/02 08:41:34;;;;;;;15.10;12.37;;;15.80;99.90;;;;;;4958297;28;20183;-37
2022/05/02 08:44:31;;;;;;;11.97;10.63;;;16.10;99.90;;;;;;4974904;28;20183;-35
2022/05/02 08:47:15;;;;;;;13.83;12.40;;;16.40;99.90;;;;;;4974488;28;20184;-36
2022/05/02 08:50:09;;;;;;;13.00;11.70;;;16.40;99.90;;;;;;4958245;28;20200;-35
2022/05/02 08:53:10;;;;;;;14.30;12.37;;;16.50;99.90;;;;;;4992210;28;20191;-37
2022/05/02 08:56:00;;;;;;;15.27;12.10;;;16.80;99.90;;;;;;4974740;28;20187;-37
2022/05/02 08:58:42;;;;;;;12.93;11.65;;;16.90;99.90;;;;;;4958463;28;20699;-36
2022/05/02 09:01:27;;;;;;;13.20;11.88;;;16.90;99.90;;;;;;4974095;28;20609;-36
2022/05/02 09:04:04;;;;;;;13.93;11.35;;;16.80;99.90;;;;;;4958223;28;20180;-37
2022/05/02 09:07:08;;;;;;;13.38;11.77;;;17.10;99.90;;;;;;4958905;28;20182;-35
2022/05/02 09:09:42;;;;;;;12.73;11.53;;;17.00;99.90;;;;;;4958003;28;20200;-36
2022/05/02 09:12:35;;;;;;;11.43;10.32;;;17.00;99.90;;;;;;4957849;28;20211;-36
2022/05/02 09:15:32;;;;;;;12.27;9.73;;;17.10;99.90;;;;;;4990674;28;20222;-36
2022/05/02 09:18:31;;;;;;;12.25;10.30;;;17.30;99.90;;;;;;4958271;28;20182;-37
2022/05/02 09:21:10;;;;;;;9.97;8.87;;;17.20;99.90;;;;;;4991870;28;20210;-36
2022/05/02 09:24:01;;;;;;;9.98;8.93;;;17.30;99.90;;;;;;4973952;28;20187;-36
2022/05/02 09:26:39;;;;;;;11.43;9.40;;;17.60;99.90;;;;;;4958087;28;20179;-36
2022/05/02 09:29:41;;;;;;;11.50;10.00;;;17.20;99.90;;;;;;4957794;28;20214;-36
2022/05/02 09:32:16;;;;;;;9.47;8.57;;;17.20;99.90;;;;;;4958039;28;20269;-37
2022/05/02 09:34:58;;;;;;;9.63;8.63;;;17.10;99.90;;;;;;4990326;28;20218;-36
2022/05/02 09:37:52;;;;;;;10.32;9.23;;;17.50;99.90;;;;;;4990572;28;20180;-37
2022/05/02 09:40:21;;;;;;;8.48;6.93;;;17.80;99.90;;;;;;4991370;28;20254;-41
2022/05/02 09:42:56;;;;;;;8.40;6.53;;;17.80;99.90;;;;;;4991582;28;20183;-36
2022/05/02 09:52:03;;;;;;;7.68;6.90;;;17.70;99.90;;;;;;4973076;28;20203;-37
2022/05/02 09:57:35;;;;;;;9.55;6.50;;;17.60;99.90;;;;;;4981438;28;20179;-37
2022/05/02 10:02:52;;;;;;;6.43;5.38;;;17.60;99.90;;;;;;5019931;28;20175;-32
2022/05/02 10:05:29;;;;;;;7.93;7.13;;;17.80;99.90;;;;;;5012546;28;20179;-32
2022/05/02 10:08:10;;;;;;;9.27;6.90;;;17.80;99.90;;;;;;4999118;28;20178;-31
2022/05/02 10:10:59;;;;;;;6.88;6.18;;;18.20;99.90;;;;;;4967023;28;20299;-32
2022/05/02 10:13:53;;;;;;;5.63;5.13;;;18.60;99.90;;;;;;4967337;28;20353;-32
2022/05/02 10:16:42;;;;;;;5.05;4.60;;;18.90;99.90;;;;;;4981518;28;20176;-32
2022/05/02 10:19:30;;;;;;;6.18;5.57;;;19.30;99.90;;;;;;4984554;28;20308;-32
2022/05/02 10:22:17;;;;;;;6.95;6.35;;;19.70;99.90;;;;;;4981278;28;20341;-32
2022/05/02 10:24:52;;;;;;;5.70;5.20;;;19.70;99.90;;;;;;4999817;28;20175;-32
2022/05/02 10:27:22;;;;;;;5.10;4.68;;;19.70;99.90;;;;;;4983922;28;20183;-32
2022/05/02 10:29:50;;;;;;;6.80;4.80;;;19.90;99.90;;;;;;5001194;28;20211;-33
2022/05/02 10:32:26;;;;;;;5.63;4.30;;;20.10;99.90;;;;;;4965162;28;20212;-32
2022/05/02 10:34:54;;;;;;;4.93;4.40;;;20.30;99.90;;;;;;4999901;28;20281;-33
2022/05/02 10:37:33;;;;;;;4.72;4.32;;;20.60;99.90;;;;;;4965487;28;20176;-32
2022/05/02 10:40:08;;;;;;;5.22;4.80;;;20.90;99.90;;;;;;4993377;28;20206;-32
2022/05/02 10:42:34;;;;;;;5.10;4.63;;;20.80;99.90;;;;;;4993270;28;20190;-33
2022/05/02 10:45:03;;;;;;;6.75;6.05;;;20.70;99.90;;;;;;4961003;28;20183;-33
2022/05/02 10:47:51;;;;;;;6.05;5.45;;;20.80;99.90;;;;;;4993245;28;20250;-32
2022/05/02 10:50:31;;;;;;;5.70;5.20;;;20.10;99.90;;;;;;4992848;28;20219;-33
2022/05/02 10:53:08;;;;;;;5.88;5.28;;;19.90;99.90;;;;;;4976810;28;20230;-32
2022/05/02 10:55:39;;;;;;;5.95;5.28;;;20.00;99.90;;;;;;4994505;28;20176;-32
2022/05/02 10:58:09;;;;;;;5.38;4.80;;;20.20;99.90;;;;;;4960485;28;20214;-31
2022/05/02 11:01:02;;;;;;;6.90;6.25;;;20.20;99.90;;;;;;4972335;28;20270;-33
2022/05/02 11:04:05;;;;;;;7.47;6.78;;;20.40;99.90;;;;;;4996239;28;20194;-32
2022/05/02 11:06:52;;;;;;;6.32;4.97;;;20.70;99.90;;;;;;4979269;28;20237;-32
2022/05/02 11:09:33;;;;;;;5.95;5.45;;;21.20;99.90;;;;;;5013473;28;20203;-33
2022/05/02 11:12:01;;;;;;;5.40;4.75;;;21.20;99.90;;;;;;4979965;28;20268;-32
2022/05/02 11:14:33;;;;;;;6.93;5.05;;;21.20;99.90;;;;;;4979578;28;20175;-32
2022/05/02 11:17:10;;;;;;;6.18;5.57;;;21.60;99.90;;;;;;4979552;28;20190;-33
2022/05/02 11:22:37;;;;;;;5.53;5.03;;;22.00;99.00;;;;;;4995837;28;20180;-32
2022/05/02 11:25:24;;;;;;;6.18;5.57;;;21.90;99.10;;;;;;4963646;28;20215;-32
2022/05/02 11:28:12;;;;;;;6.95;6.25;;;21.70;98.70;;;;;;4979502;28;20193;-33
2022/05/02 11:31:08;;;;;;;6.80;6.07;;;21.30;99.90;;;;;;4975754;28;20224;-32
2022/05/02 11:33:42;;;;;;;6.50;5.68;;;21.20;99.90;;;;;;4975558;28;20354;-32
2022/05/02 11:36:10;;;;;;;5.97;5.35;;;21.60;99.90;;;;;;4976133;28;20179;-32
2022/05/02 11:38:53;;;;;;;6.25;5.65;;;22.00;99.60;;;;;;4993610;28;20263;-32
2022/05/02 11:41:22;;;;;;;5.15;4.75;;;22.00;98.60;;;;;;4976029;28;20203;-33
2022/05/02 11:43:54;;;;;;;5.30;4.88;;;22.20;98.90;;;;;;4960739;28;20195;-33
2022/05/02 11:46:25;;;;;;;4.95;4.55;;;22.20;99.00;;;;;;4994385;28;20262;-32
2022/05/02 11:48:50;;;;;;;5.53;5.03;;;22.40;96.90;;;;;;4977336;28;20230;-33
2022/05/02 11:51:46;;;;;;;5.25;4.65;;;22.50;98.30;;;;;;4977517;28;20239;-33
2022/05/02 11:54:32;;;;;;;6.18;5.20;;;22.50;98.60;;;;;;4975551;28;20192;-33
2022/05/02 11:57:07;;;;;;;5.80;5.13;;;22.60;98.60;;;;;;4975335;28;20184;-32
2022/05/02 11:59:50;;;;;;;5.72;4.65;;;22.90;96.80;;;;;;4958954;28;20223;-32
2022/05/02 12:02:37;;;;;;;5.13;4.53;;;23.30;97.60;;;;;;4975545;28;20258;-33
2022/05/02 12:05:17;;;;;;;4.97;4.47;;;23.60;98.00;;;;;;4952240;28;20195;-32
2022/05/02 12:07:53;;;;;;;5.65;4.10;;;23.70;95.40;;;;;;4975699;28;20180;-32
2022/05/02 12:10:21;;;;;;;4.70;4.30;;;23.30;96.30;;;;;;4959057;28;20214;-33
2022/05/02 12:12:49;;;;;;;5.00;4.60;;;23.80;96.70;;;;;;4975380;28;20271;-34
2022/05/02 12:15:16;;;;;;;5.90;5.40;;;23.90;95.50;;;;;;4958961;28;20190;-32
2022/05/02 12:18:09;;;;;;;4.90;4.50;;;23.80;93.70;;;;;;4958994;28;20180;-32
2022/05/02 12:20:40;;;;;;;4.60;4.22;;;24.00;94.40;;;;;;4989295;28;20192;-33
2022/05/02 12:23:16;;;;;;;6.32;5.70;;;23.90;95.10;;;;;;4975114;28;20195;-32
2022/05/02 12:25:54;;;;;;;5.03;4.63;;;23.10;93.10;;;;;;4958686;28;20187;-32
2022/05/02 12:28:38;;;;;;;4.10;3.80;;;22.90;95.20;;;;;;4959126;28;20191;-33
2022/05/02 12:31:08;;;;;;;4.82;4.43;;;23.00;96.00;;;;;;4971166;28;20215;-33
2022/05/02 12:33:40;;;;;;;4.82;3.97;;;23.30;95.00;;;;;;4974996;28;20176;-33
2022/05/02 12:36:19;;;;;;;5.43;4.30;;;23.60;93.40;;;;;;4974927;28;20307;-33
2022/05/02 12:38:54;;;;;;;4.85;4.13;;;23.70;93.50;;;;;;4974929;28;20246;-32
2022/05/02 12:41:24;;;;;;;4.15;3.70;;;23.40;93.60;;;;;;4974796;28;20282;-33
2022/05/02 12:43:54;;;;;;;4.38;4.00;;;23.30;94.30;;;;;;4974442;28;20347;-32
2022/05/02 12:46:32;;;;;;;4.63;4.10;;;23.00;94.10;;;;;;4974719;28;20179;-32
2022/05/02 12:49:04;;;;;;;4.28;3.95;;;22.80;94.30;;;;;;4974391;28;20227;-33
2022/05/02 12:51:31;;;;;;;3.85;3.55;;;22.50;94.10;;;;;;4974770;28;20207;-32
2022/05/02 12:54:14;;;;;;;5.85;4.68;;;22.80;95.30;;;;;;4974820;28;20187;-33
2022/05/02 12:56:48;;;;;;;4.50;4.10;;;23.00;94.40;;;;;;4992111;28;20263;-33
2022/05/02 13:02:00;;;;;;;5.00;4.50;;;23.40;93.20;;;;;;4993965;28;20201;-33
2022/05/02 13:04:28;;;;;;;4.57;3.80;;;23.80;93.50;;;;;;5011515;28;20187;-33
2022/05/02 13:06:58;;;;;;;4.32;3.92;;;24.30;93.20;;;;;;4993850;28;20183;-33
2022/05/02 13:09:37;;;;;;;3.90;3.60;;;24.50;91.60;;;;;;4993793;28;20218;-33
2022/05/02 13:12:12;;;;;;;4.50;4.20;;;24.30;91.70;;;;;;4993810;28;20296;-33
2022/05/02 13:14:41;;;;;;;3.92;3.55;;;23.80;91.60;;;;;;4977686;28;20174;-33
2022/05/02 13:17:13;;;;;;;4.00;3.60;;;23.50;92.00;;;;;;4993748;28;20210;-33
2022/05/02 13:19:41;;;;;;;4.60;3.78;;;23.30;92.00;;;;;;4977176;28;20210;-33
2022/05/02 13:22:07;;;;;;;4.97;4.57;;;23.20;93.00;;;;;;5011077;28;20179;-33
2022/05/02 13:24:37;;;;;;;3.75;3.45;;;22.80;91.20;;;;;;4993726;28;20183;-33
2022/05/02 13:27:26;;;;;;;4.22;3.83;;;22.60;93.50;;;;;;5011360;28;20171;-33
2022/05/02 13:29:52;;;;;;;6.15;4.80;;;22.90;93.80;;;;;;4990200;28;20234;-32
2022/05/02 13:32:32;;;;;;;3.80;3.47;;;22.60;91.90;;;;;;4957891;28;20223;-33
2022/05/02 13:35:01;;;;;;;4.15;3.85;;;22.60;93.80;;;;;;4974183;28;20184;-32
2022/05/02 13:37:45;;;;;;;4.43;3.80;;;22.60;94.00;;;;;;4974202;28;20179;-33
2022/05/02 13:40:16;;;;;;;3.63;3.33;;;22.60;93.70;;;;;;4973809;28;20286;-32
2022/05/02 13:42:57;;;;;;;7.65;5.03;;;22.60;93.70;;;;;;4973914;28;20718;-33